Ostend, Belgium

4:58 PM CEST on August 25, 2016 (GMT +0200)
Ostend | | Change Station
Active Advisory: nederlands: fran├žais:

Elev 13 ft 51.20 °N, 2.86 °E | Updated 8 minutes ago

Clear
Clear
79 °F
Feels Like 79 °F
N
7
Wind Variable Wind from NNW

Today
High -- | Low -- °F
--% Chance of Precip.
Yesterday
High -- | Low -- °F
Precip. -- in
Pressure 29.95 in
Visibility 5.6 miles
Clouds
Dew Point 63 °F
Humidity 57%
Rainfall 0.00 in
Snow Depth Not available.
6:51 AM 8:48 PM
Last Quarter, 45% visible
METAR EBOS 251450Z 34006KT 310V010 9000 NSC 26/17 Q1014 NOSIG
Pressure 29.95 in
Visibility 5.6 miles
Clouds
Dew Point 63 °F
Humidity 57%
Rainfall 0.00 in
Snow Depth Not available.
6:51 AM 8:48 PM
Last Quarter, 45% visible
METAR EBOS 251450Z 34006KT 310V010 9000 NSC 26/17 Q1014 NOSIG

10-Day Weather Forecast

×

Almanac

Astronomy

Aug. 25, 2016 Rise Set
Actual Time
Civil Twilight
Nautical Twilight
Astronomical Twilight
Moon
Length of Visible Light
Length of Day
Tomorrow will be .
, % of the Moon is Illuminated

Today's Extremes

Country Highs Country Lows

Community

WunderPhotos

Upload Photos

1,934,850 photos uploaded!

WunderBlog® & News

Nearby

Air Quality

  Air Quality AQ Index Pollutant
Not available.

Snow Depth

Station Depth Elevation

Earthquake Activity

City Distance Mag. Time & Date
Minimum magnitude displayed is 2.5.

Coastal Water Temperatures

Place Temperature

Stations

Nearby Weather Stations

Station Location Temp. Windchill Dew Point Humidity Wind Precip. Elev Updated Type